Denver ARTCC

A member of the VATUSA division of VATSIM
Online Controllers
No online controllers
Airport Weather
KDEN VFR 270 @ 05 30.03
KASE VFR 210 @ 07 30.08
KCOS VFR 200 @ 04 30.07
KGJT VFR 000 @ 00 30.06
Airport Search

Airport Information

KASE Aspen–Pitkin County Airport

KASE 210353Z 21007KT 10SM CLR M01/M09 A3008 RMK AO2 SLP173 T10111089

© 2018 Denver ARTCC. All rights reserved. Information contained on this website is intended for simulation purposes only. Do not use for real world operations. We are not affiliated with the FAA or any other government agency. Photographs provided courtesy of Denver International Airport. Developed by Mark Swan.